sensor_id;sensor_type;location;lat;lon;timestamp;P1;durP1;ratioP1;P2;durP2;ratioP2
72813;SDS011;60945;48.516;-2.768;2022-09-27T00:01:59;7.10;;;1.60;;
72813;SDS011;60945;48.516;-2.768;2022-09-27T00:04:24;7.55;;;1.35;;
72813;SDS011;60945;48.516;-2.768;2022-09-27T00:06:51;6.25;;;1.30;;
72813;SDS011;60945;48.516;-2.768;2022-09-27T00:09:17;4.68;;;1.08;;
72813;SDS011;60945;48.516;-2.768;2022-09-27T00:11:43;7.10;;;1.50;;
72813;SDS011;60945;48.516;-2.768;2022-09-27T00:14:14;8.15;;;1.70;;
72813;SDS011;60945;48.516;-2.768;2022-09-27T00:16:40;7.13;;;1.88;;
72813;SDS011;60945;48.516;-2.768;2022-09-27T00:19:11;4.88;;;1.60;;
72813;SDS011;60945;48.516;-2.768;2022-09-27T00:21:39;7.38;;;1.50;;
72813;SDS011;60945;48.516;-2.768;2022-09-27T00:24:05;6.90;;;1.33;;
72813;SDS011;60945;48.516;-2.768;2022-09-27T00:26:35;9.18;;;1.50;;
72813;SDS011;60945;48.516;-2.768;2022-09-27T00:29:01;7.57;;;1.70;;
72813;SDS011;60945;48.516;-2.768;2022-09-27T00:31:28;8.63;;;1.67;;
72813;SDS011;60945;48.516;-2.768;2022-09-27T00:33:55;8.82;;;2.20;;
72813;SDS011;60945;48.516;-2.768;2022-09-27T00:36:25;9.30;;;1.63;;
72813;SDS011;60945;48.516;-2.768;2022-09-27T00:38:52;9.07;;;2.50;;
72813;SDS011;60945;48.516;-2.768;2022-09-27T00:41:19;12.38;;;1.80;;
72813;SDS011;60945;48.516;-2.768;2022-09-27T00:49:16;8.68;;;1.70;;
72813;SDS011;60945;48.516;-2.768;2022-09-27T00:51:51;9.23;;;2.40;;
72813;SDS011;60945;48.516;-2.768;2022-09-27T00:54:21;9.45;;;1.83;;
72813;SDS011;60945;48.516;-2.768;2022-09-27T00:56:50;9.55;;;2.28;;
72813;SDS011;60945;48.516;-2.768;2022-09-27T00:59:25;6.07;;;1.60;;
72813;SDS011;60945;48.516;-2.768;2022-09-27T01:01:54;6.20;;;1.55;;
72813;SDS011;60945;48.516;-2.768;2022-09-27T01:04:21;6.88;;;1.50;;
72813;SDS011;60945;48.516;-2.768;2022-09-27T01:06:50;8.20;;;2.20;;
72813;SDS011;60945;48.516;-2.768;2022-09-27T01:09:16;7.50;;;1.50;;
72813;SDS011;60945;48.516;-2.768;2022-09-27T01:17:01;6.00;;;1.77;;
72813;SDS011;60945;48.516;-2.768;2022-09-27T01:22:37;6.82;;;1.95;;
72813;SDS011;60945;48.516;-2.768;2022-09-27T01:30:52;8.13;;;1.80;;
72813;SDS011;60945;48.516;-2.768;2022-09-27T01:41:27;6.20;;;1.92;;
72813;SDS011;60945;48.516;-2.768;2022-09-27T01:44:11;6.93;;;1.85;;
72813;SDS011;60945;48.516;-2.768;2022-09-27T01:47:00;9.52;;;1.65;;
72813;SDS011;60945;48.516;-2.768;2022-09-27T01:49:46;6.93;;;1.50;;
72813;SDS011;60945;48.516;-2.768;2022-09-27T01:52:21;8.60;;;2.05;;
72813;SDS011;60945;48.516;-2.768;2022-09-27T01:54:52;5.63;;;1.38;;
72813;SDS011;60945;48.516;-2.768;2022-09-27T01:57:23;4.40;;;1.42;;
72813;SDS011;60945;48.516;-2.768;2022-09-27T02:00:15;10.27;;;1.58;;
72813;SDS011;60945;48.516;-2.768;2022-09-27T02:02:45;8.10;;;1.42;;
72813;SDS011;60945;48.516;-2.768;2022-09-27T02:05:18;5.20;;;1.27;;
72813;SDS011;60945;48.516;-2.768;2022-09-27T02:07:47;7.85;;;1.65;;
72813;SDS011;60945;48.516;-2.768;2022-09-27T02:10:21;5.35;;;1.70;;
72813;SDS011;60945;48.516;-2.768;2022-09-27T02:12:59;4.30;;;1.40;;
72813;SDS011;60945;48.516;-2.768;2022-09-27T02:15:34;8.05;;;1.45;;
72813;SDS011;60945;48.516;-2.768;2022-09-27T02:18:15;6.95;;;1.70;;
72813;SDS011;60945;48.516;-2.768;2022-09-27T02:20:50;10.35;;;1.58;;
72813;SDS011;60945;48.516;-2.768;2022-09-27T02:25:58;5.13;;;1.50;;
72813;SDS011;60945;48.516;-2.768;2022-09-27T02:28:38;6.97;;;1.73;;
72813;SDS011;60945;48.516;-2.768;2022-09-27T02:31:13;8.00;;;1.88;;
72813;SDS011;60945;48.516;-2.768;2022-09-27T02:33:41;11.15;;;1.95;;
72813;SDS011;60945;48.516;-2.768;2022-09-27T02:36:12;9.90;;;1.42;;
72813;SDS011;60945;48.516;-2.768;2022-09-27T02:38:39;8.82;;;1.95;;
72813;SDS011;60945;48.516;-2.768;2022-09-27T02:41:15;6.65;;;1.20;;
72813;SDS011;60945;48.516;-2.768;2022-09-27T02:43:42;7.00;;;1.42;;
72813;SDS011;60945;48.516;-2.768;2022-09-27T02:51:40;6.68;;;1.77;;
72813;SDS011;60945;48.516;-2.768;2022-09-27T02:54:25;8.35;;;1.80;;
72813;SDS011;60945;48.516;-2.768;2022-09-27T02:59:59;10.20;;;1.63;;
72813;SDS011;60945;48.516;-2.768;2022-09-27T03:05:07;11.32;;;2.15;;
72813;SDS011;60945;48.516;-2.768;2022-09-27T03:07:54;8.88;;;1.70;;
72813;SDS011;60945;48.516;-2.768;2022-09-27T03:10:24;9.13;;;1.77;;
72813;SDS011;60945;48.516;-2.768;2022-09-27T03:12:51;7.82;;;1.67;;
72813;SDS011;60945;48.516;-2.768;2022-09-27T03:15:18;7.55;;;1.60;;
72813;SDS011;60945;48.516;-2.768;2022-09-27T03:17:44;5.07;;;1.67;;
72813;SDS011;60945;48.516;-2.768;2022-09-27T03:20:10;9.02;;;1.58;;
72813;SDS011;60945;48.516;-2.768;2022-09-27T03:22:36;10.20;;;1.63;;
72813;SDS011;60945;48.516;-2.768;2022-09-27T03:25:02;8.45;;;1.77;;
72813;SDS011;60945;48.516;-2.768;2022-09-27T03:27:29;8.18;;;1.58;;
72813;SDS011;60945;48.516;-2.768;2022-09-27T03:29:55;5.55;;;1.42;;
72813;SDS011;60945;48.516;-2.768;2022-09-27T03:32:21;6.80;;;1.60;;
72813;SDS011;60945;48.516;-2.768;2022-09-27T03:34:47;9.20;;;1.60;;
72813;SDS011;60945;48.516;-2.768;2022-09-27T03:37:13;4.60;;;1.00;;
72813;SDS011;60945;48.516;-2.768;2022-09-27T03:39:38;6.70;;;1.50;;
72813;SDS011;60945;48.516;-2.768;2022-09-27T03:42:04;3.78;;;1.40;;
72813;SDS011;60945;48.516;-2.768;2022-09-27T03:44:30;6.93;;;1.27;;
72813;SDS011;60945;48.516;-2.768;2022-09-27T03:46:57;6.20;;;1.67;;
72813;SDS011;60945;48.516;-2.768;2022-09-27T03:49:23;6.45;;;1.27;;
72813;SDS011;60945;48.516;-2.768;2022-09-27T03:51:48;9.68;;;2.20;;
72813;SDS011;60945;48.516;-2.768;2022-09-27T03:54:14;6.15;;;1.42;;
72813;SDS011;60945;48.516;-2.768;2022-09-27T03:56:40;6.28;;;1.42;;
72813;SDS011;60945;48.516;-2.768;2022-09-27T03:59:05;4.70;;;1.35;;
72813;SDS011;60945;48.516;-2.768;2022-09-27T04:01:31;10.90;;;1.45;;
72813;SDS011;60945;48.516;-2.768;2022-09-27T04:03:59;5.93;;;1.20;;
72813;SDS011;60945;48.516;-2.768;2022-09-27T04:06:25;7.22;;;1.48;;
72813;SDS011;60945;48.516;-2.768;2022-09-27T04:08:53;6.80;;;1.60;;
72813;SDS011;60945;48.516;-2.768;2022-09-27T04:11:19;5.30;;;0.98;;
72813;SDS011;60945;48.516;-2.768;2022-09-27T04:13:47;6.22;;;1.10;;
72813;SDS011;60945;48.516;-2.768;2022-09-27T04:16:13;4.60;;;1.20;;
72813;SDS011;60945;48.516;-2.768;2022-09-27T04:18:40;5.63;;;1.52;;
72813;SDS011;60945;48.516;-2.768;2022-09-27T04:21:06;6.97;;;1.40;;
72813;SDS011;60945;48.516;-2.768;2022-09-27T04:23:32;7.30;;;1.10;;
72813;SDS011;60945;48.516;-2.768;2022-09-27T04:25:58;6.18;;;1.63;;
72813;SDS011;60945;48.516;-2.768;2022-09-27T04:28:36;3.35;;;1.00;;
72813;SDS011;60945;48.516;-2.768;2022-09-27T04:31:02;5.93;;;1.10;;
72813;SDS011;60945;48.516;-2.768;2022-09-27T04:33:27;4.22;;;1.20;;
72813;SDS011;60945;48.516;-2.768;2022-09-27T04:35:53;5.88;;;1.17;;
72813;SDS011;60945;48.516;-2.768;2022-09-27T04:38:37;5.85;;;1.48;;
72813;SDS011;60945;48.516;-2.768;2022-09-27T04:41:03;5.93;;;1.10;;
72813;SDS011;60945;48.516;-2.768;2022-09-27T04:43:29;9.07;;;1.50;;
72813;SDS011;60945;48.516;-2.768;2022-09-27T04:45:54;6.50;;;1.75;;
72813;SDS011;60945;48.516;-2.768;2022-09-27T04:48:20;7.30;;;1.58;;
72813;SDS011;60945;48.516;-2.768;2022-09-27T04:50:46;9.15;;;1.50;;
72813;SDS011;60945;48.516;-2.768;2022-09-27T04:53:14;6.78;;;1.58;;
72813;SDS011;60945;48.516;-2.768;2022-09-27T04:55:44;5.70;;;1.30;;
72813;SDS011;60945;48.516;-2.768;2022-09-27T04:58:11;9.13;;;1.55;;
72813;SDS011;60945;48.516;-2.768;2022-09-27T05:00:36;5.25;;;1.85;;
72813;SDS011;60945;48.516;-2.768;2022-09-27T05:03:02;10.85;;;1.58;;
72813;SDS011;60945;48.516;-2.768;2022-09-27T05:05:27;5.95;;;1.20;;
72813;SDS011;60945;48.516;-2.768;2022-09-27T05:07:53;7.35;;;1.70;;
72813;SDS011;60945;48.516;-2.768;2022-09-27T05:10:19;6.13;;;1.63;;
72813;SDS011;60945;48.516;-2.768;2022-09-27T05:12:45;6.63;;;1.80;;
72813;SDS011;60945;48.516;-2.768;2022-09-27T05:15:10;10.27;;;1.52;;
72813;SDS011;60945;48.516;-2.768;2022-09-27T05:17:36;8.70;;;1.88;;
72813;SDS011;60945;48.516;-2.768;2022-09-27T05:20:02;5.60;;;1.35;;
72813;SDS011;60945;48.516;-2.768;2022-09-27T05:22:28;5.72;;;1.55;;
72813;SDS011;60945;48.516;-2.768;2022-09-27T05:24:54;8.65;;;1.58;;
72813;SDS011;60945;48.516;-2.768;2022-09-27T05:27:19;11.95;;;2.20;;
72813;SDS011;60945;48.516;-2.768;2022-09-27T05:29:46;7.50;;;1.52;;
72813;SDS011;60945;48.516;-2.768;2022-09-27T05:32:12;9.43;;;1.45;;
72813;SDS011;60945;48.516;-2.768;2022-09-27T05:34:38;11.38;;;1.90;;
72813;SDS011;60945;48.516;-2.768;2022-09-27T05:37:04;11.20;;;1.33;;
72813;SDS011;60945;48.516;-2.768;2022-09-27T05:39:30;7.85;;;1.52;;
72813;SDS011;60945;48.516;-2.768;2022-09-27T05:41:55;7.25;;;1.67;;
72813;SDS011;60945;48.516;-2.768;2022-09-27T05:44:21;8.60;;;2.35;;
72813;SDS011;60945;48.516;-2.768;2022-09-27T05:46:48;8.10;;;1.88;;
72813;SDS011;60945;48.516;-2.768;2022-09-27T05:49:13;7.05;;;1.80;;
72813;SDS011;60945;48.516;-2.768;2022-09-27T05:51:39;13.05;;;2.17;;
72813;SDS011;60945;48.516;-2.768;2022-09-27T05:54:06;14.02;;;2.08;;
72813;SDS011;60945;48.516;-2.768;2022-09-27T05:56:31;9.98;;;2.30;;
72813;SDS011;60945;48.516;-2.768;2022-09-27T05:58:57;11.55;;;1.88;;
72813;SDS011;60945;48.516;-2.768;2022-09-27T06:01:23;15.07;;;2.50;;
72813;SDS011;60945;48.516;-2.768;2022-09-27T06:03:50;13.55;;;1.85;;
72813;SDS011;60945;48.516;-2.768;2022-09-27T06:06:17;16.35;;;2.55;;
72813;SDS011;60945;48.516;-2.768;2022-09-27T06:08:43;8.00;;;2.20;;
72813;SDS011;60945;48.516;-2.768;2022-09-27T06:11:10;14.52;;;2.15;;
72813;SDS011;60945;48.516;-2.768;2022-09-27T06:13:36;15.98;;;2.45;;
72813;SDS011;60945;48.516;-2.768;2022-09-27T06:16:03;13.60;;;3.03;;
72813;SDS011;60945;48.516;-2.768;2022-09-27T06:18:30;20.90;;;3.05;;
72813;SDS011;60945;48.516;-2.768;2022-09-27T06:21:00;11.45;;;1.98;;
72813;SDS011;60945;48.516;-2.768;2022-09-27T06:23:26;13.45;;;2.45;;
72813;SDS011;60945;48.516;-2.768;2022-09-27T06:25:52;11.27;;;1.92;;
72813;SDS011;60945;48.516;-2.768;2022-09-27T06:28:24;13.68;;;2.30;;
72813;SDS011;60945;48.516;-2.768;2022-09-27T06:30:54;14.07;;;2.20;;
72813;SDS011;60945;48.516;-2.768;2022-09-27T06:33:20;10.90;;;2.00;;
72813;SDS011;60945;48.516;-2.768;2022-09-27T06:35:46;12.20;;;2.28;;
72813;SDS011;60945;48.516;-2.768;2022-09-27T06:38:14;23.10;;;2.97;;
72813;SDS011;60945;48.516;-2.768;2022-09-27T06:40:42;14.40;;;3.40;;
72813;SDS011;60945;48.516;-2.768;2022-09-27T06:43:14;11.18;;;2.88;;
72813;SDS011;60945;48.516;-2.768;2022-09-27T06:45:42;12.38;;;2.28;;
72813;SDS011;60945;48.516;-2.768;2022-09-27T06:48:08;9.18;;;2.05;;
72813;SDS011;60945;48.516;-2.768;2022-09-27T06:50:37;13.63;;;2.38;;
72813;SDS011;60945;48.516;-2.768;2022-09-27T06:53:04;13.50;;;2.55;;
72813;SDS011;60945;48.516;-2.768;2022-09-27T06:55:32;10.63;;;2.25;;
72813;SDS011;60945;48.516;-2.768;2022-09-27T06:58:00;13.02;;;2.35;;
72813;SDS011;60945;48.516;-2.768;2022-09-27T07:00:48;14.55;;;2.50;;
72813;SDS011;60945;48.516;-2.768;2022-09-27T07:03:15;15.10;;;2.83;;
72813;SDS011;60945;48.516;-2.768;2022-09-27T07:05:41;14.07;;;2.58;;
72813;SDS011;60945;48.516;-2.768;2022-09-27T07:08:10;12.52;;;2.38;;
72813;SDS011;60945;48.516;-2.768;2022-09-27T07:10:36;14.05;;;2.92;;
72813;SDS011;60945;48.516;-2.768;2022-09-27T07:13:08;9.45;;;2.17;;
72813;SDS011;60945;48.516;-2.768;2022-09-27T07:15:39;15.60;;;4.22;;
72813;SDS011;60945;48.516;-2.768;2022-09-27T07:18:06;15.25;;;2.80;;
72813;SDS011;60945;48.516;-2.768;2022-09-27T07:20:32;15.10;;;2.60;;
72813;SDS011;60945;48.516;-2.768;2022-09-27T07:23:01;10.52;;;2.30;;
72813;SDS011;60945;48.516;-2.768;2022-09-27T07:25:28;27.50;;;3.50;;
72813;SDS011;60945;48.516;-2.768;2022-09-27T07:27:54;15.02;;;2.63;;
72813;SDS011;60945;48.516;-2.768;2022-09-27T07:30:29;16.20;;;3.85;;
72813;SDS011;60945;48.516;-2.768;2022-09-27T07:32:58;9.60;;;2.58;;
72813;SDS011;60945;48.516;-2.768;2022-09-27T07:35:24;14.25;;;3.13;;
72813;SDS011;60945;48.516;-2.768;2022-09-27T07:37:52;9.90;;;2.70;;
72813;SDS011;60945;48.516;-2.768;2022-09-27T07:40:19;14.90;;;3.22;;
72813;SDS011;60945;48.516;-2.768;2022-09-27T07:42:44;15.05;;;2.35;;
72813;SDS011;60945;48.516;-2.768;2022-09-27T07:45:10;10.55;;;2.45;;
72813;SDS011;60945;48.516;-2.768;2022-09-27T07:47:39;12.77;;;2.92;;
72813;SDS011;60945;48.516;-2.768;2022-09-27T07:50:06;12.32;;;3.47;;
72813;SDS011;60945;48.516;-2.768;2022-09-27T07:52:39;14.20;;;3.15;;
72813;SDS011;60945;48.516;-2.768;2022-09-27T07:55:06;14.50;;;4.30;;
72813;SDS011;60945;48.516;-2.768;2022-09-27T07:57:33;13.70;;;4.25;;
72813;SDS011;60945;48.516;-2.768;2022-09-27T07:59:59;14.68;;;3.50;;
72813;SDS011;60945;48.516;-2.768;2022-09-27T08:02:24;15.90;;;3.63;;
72813;SDS011;60945;48.516;-2.768;2022-09-27T08:04:50;14.15;;;3.58;;
72813;SDS011;60945;48.516;-2.768;2022-09-27T08:07:18;15.85;;;3.72;;
72813;SDS011;60945;48.516;-2.768;2022-09-27T08:09:44;11.40;;;3.10;;
72813;SDS011;60945;48.516;-2.768;2022-09-27T08:12:10;13.07;;;4.38;;
72813;SDS011;60945;48.516;-2.768;2022-09-27T08:14:36;15.90;;;4.85;;
72813;SDS011;60945;48.516;-2.768;2022-09-27T08:17:01;13.77;;;4.13;;
72813;SDS011;60945;48.516;-2.768;2022-09-27T08:19:27;13.20;;;3.83;;
72813;SDS011;60945;48.516;-2.768;2022-09-27T08:21:54;13.90;;;3.70;;
72813;SDS011;60945;48.516;-2.768;2022-09-27T08:24:20;15.32;;;3.75;;
72813;SDS011;60945;48.516;-2.768;2022-09-27T08:26:45;11.93;;;3.88;;
72813;SDS011;60945;48.516;-2.768;2022-09-27T08:29:11;14.48;;;4.18;;
72813;SDS011;60945;48.516;-2.768;2022-09-27T08:31:37;14.02;;;3.97;;
72813;SDS011;60945;48.516;-2.768;2022-09-27T08:34:03;10.88;;;3.90;;
72813;SDS011;60945;48.516;-2.768;2022-09-27T08:36:29;15.85;;;3.92;;
72813;SDS011;60945;48.516;-2.768;2022-09-27T08:38:56;12.32;;;3.55;;
72813;SDS011;60945;48.516;-2.768;2022-09-27T08:51:48;14.70;;;4.90;;
72813;SDS011;60945;48.516;-2.768;2022-09-27T08:54:18;11.88;;;3.58;;
72813;SDS011;60945;48.516;-2.768;2022-09-27T08:56:47;13.88;;;4.35;;
72813;SDS011;60945;48.516;-2.768;2022-09-27T08:59:16;14.15;;;4.50;;
72813;SDS011;60945;48.516;-2.768;2022-09-27T09:01:49;14.25;;;4.05;;
72813;SDS011;60945;48.516;-2.768;2022-09-27T09:04:36;13.23;;;4.40;;
72813;SDS011;60945;48.516;-2.768;2022-09-27T09:10:02;17.17;;;4.20;;
72813;SDS011;60945;48.516;-2.768;2022-09-27T09:13:18;15.73;;;4.30;;
72813;SDS011;60945;48.516;-2.768;2022-09-27T09:34:50;15.18;;;4.57;;
72813;SDS011;60945;48.516;-2.768;2022-09-27T09:37:38;14.52;;;3.92;;
72813;SDS011;60945;48.516;-2.768;2022-09-27T09:42:59;13.20;;;4.13;;
72813;SDS011;60945;48.516;-2.768;2022-09-27T09:45:34;20.55;;;4.38;;
72813;SDS011;60945;48.516;-2.768;2022-09-27T09:50:46;20.88;;;4.50;;
72813;SDS011;60945;48.516;-2.768;2022-09-27T09:55:48;19.13;;;4.28;;
72813;SDS011;60945;48.516;-2.768;2022-09-27T09:58:21;14.68;;;4.07;;
72813;SDS011;60945;48.516;-2.768;2022-09-27T10:00:53;18.60;;;4.60;;
72813;SDS011;60945;48.516;-2.768;2022-09-27T10:03:34;17.98;;;5.18;;
72813;SDS011;60945;48.516;-2.768;2022-09-27T10:05:59;15.85;;;4.32;;
72813;SDS011;60945;48.516;-2.768;2022-09-27T10:08:25;16.65;;;4.47;;
72813;SDS011;60945;48.516;-2.768;2022-09-27T10:10:51;15.07;;;4.38;;
72813;SDS011;60945;48.516;-2.768;2022-09-27T10:13:18;11.40;;;3.83;;
72813;SDS011;60945;48.516;-2.768;2022-09-27T10:15:55;19.88;;;6.32;;
72813;SDS011;60945;48.516;-2.768;2022-09-27T10:18:26;17.15;;;5.70;;
72813;SDS011;60945;48.516;-2.768;2022-09-27T10:20:58;17.10;;;4.78;;
72813;SDS011;60945;48.516;-2.768;2022-09-27T10:23:28;16.25;;;4.47;;
72813;SDS011;60945;48.516;-2.768;2022-09-27T10:28:42;17.50;;;4.43;;
72813;SDS011;60945;48.516;-2.768;2022-09-27T10:31:20;15.63;;;4.20;;
72813;SDS011;60945;48.516;-2.768;2022-09-27T10:33:51;13.07;;;4.05;;
72813;SDS011;60945;48.516;-2.768;2022-09-27T10:36:21;14.50;;;4.00;;
72813;SDS011;60945;48.516;-2.768;2022-09-27T10:38:54;14.98;;;4.38;;
72813;SDS011;60945;48.516;-2.768;2022-09-27T10:41:30;13.25;;;3.50;;
72813;SDS011;60945;48.516;-2.768;2022-09-27T10:43:56;14.50;;;3.80;;
72813;SDS011;60945;48.516;-2.768;2022-09-27T10:46:34;12.68;;;3.67;;
72813;SDS011;60945;48.516;-2.768;2022-09-27T10:51:48;12.95;;;3.55;;
72813;SDS011;60945;48.516;-2.768;2022-09-27T10:54:23;16.33;;;4.10;;
72813;SDS011;60945;48.516;-2.768;2022-09-27T10:59:29;12.50;;;3.97;;
72813;SDS011;60945;48.516;-2.768;2022-09-27T11:01:59;14.95;;;3.72;;
72813;SDS011;60945;48.516;-2.768;2022-09-27T11:07:07;12.70;;;3.53;;
72813;SDS011;60945;48.516;-2.768;2022-09-27T11:09:55;14.02;;;3.65;;
72813;SDS011;60945;48.516;-2.768;2022-09-27T11:12:27;16.27;;;4.35;;
72813;SDS011;60945;48.516;-2.768;2022-09-27T11:14:58;14.27;;;4.00;;
72813;SDS011;60945;48.516;-2.768;2022-09-27T11:17:34;19.65;;;4.90;;
72813;SDS011;60945;48.516;-2.768;2022-09-27T11:34:41;14.68;;;3.33;;
72813;SDS011;60945;48.516;-2.768;2022-09-27T11:37:19;12.32;;;3.65;;
72813;SDS011;60945;48.516;-2.768;2022-09-27T11:53:35;12.52;;;2.75;;
72813;SDS011;60945;48.516;-2.768;2022-09-27T12:02:01;9.35;;;2.72;;
72813;SDS011;60945;48.516;-2.768;2022-09-27T12:09:56;11.05;;;2.10;;
72813;SDS011;60945;48.516;-2.768;2022-09-27T12:12:28;9.70;;;1.92;;
72813;SDS011;60945;48.516;-2.768;2022-09-27T12:15:03;12.70;;;2.70;;
72813;SDS011;60945;48.516;-2.768;2022-09-27T12:17:37;6.75;;;2.10;;
72813;SDS011;60945;48.516;-2.768;2022-09-27T12:20:13;10.18;;;2.13;;
72813;SDS011;60945;48.516;-2.768;2022-09-27T12:23:28;9.68;;;2.15;;
72813;SDS011;60945;48.516;-2.768;2022-09-27T12:25:41;7.70;;;2.25;;
72813;SDS011;60945;48.516;-2.768;2022-09-27T12:28:18;6.53;;;1.77;;
72813;SDS011;60945;48.516;-2.768;2022-09-27T12:30:54;12.70;;;1.80;;
72813;SDS011;60945;48.516;-2.768;2022-09-27T12:33:28;9.82;;;2.10;;
72813;SDS011;60945;48.516;-2.768;2022-09-27T12:36:09;9.18;;;2.05;;
72813;SDS011;60945;48.516;-2.768;2022-09-27T12:38:43;7.82;;;1.90;;
72813;SDS011;60945;48.516;-2.768;2022-09-27T12:41:17;8.45;;;1.80;;
72813;SDS011;60945;48.516;-2.768;2022-09-27T12:43:47;10.18;;;2.00;;
72813;SDS011;60945;48.516;-2.768;2022-09-27T12:51:49;14.15;;;2.20;;
72813;SDS011;60945;48.516;-2.768;2022-09-27T13:02:52;9.77;;;1.70;;
72813;SDS011;60945;48.516;-2.768;2022-09-27T13:08:16;6.13;;;1.80;;
72813;SDS011;60945;48.516;-2.768;2022-09-27T13:11:33;11.82;;;2.47;;
72813;SDS011;60945;48.516;-2.768;2022-09-27T13:14:27;12.18;;;2.90;;
72813;SDS011;60945;48.516;-2.768;2022-09-27T13:16:57;10.32;;;2.22;;
72813;SDS011;60945;48.516;-2.768;2022-09-27T13:22:03;11.70;;;2.30;;
72813;SDS011;60945;48.516;-2.768;2022-09-27T13:24:49;10.10;;;2.30;;
72813;SDS011;60945;48.516;-2.768;2022-09-27T13:29:47;14.45;;;2.40;;
72813;SDS011;60945;48.516;-2.768;2022-09-27T13:32:17;6.13;;;1.98;;
72813;SDS011;60945;48.516;-2.768;2022-09-27T13:40:34;8.05;;;2.03;;
72813;SDS011;60945;48.516;-2.768;2022-09-27T13:43:05;7.97;;;1.58;;
72813;SDS011;60945;48.516;-2.768;2022-09-27T13:48:15;4.75;;;1.08;;
72813;SDS011;60945;48.516;-2.768;2022-09-27T13:50:46;6.43;;;1.13;;
72813;SDS011;60945;48.516;-2.768;2022-09-27T13:53:26;6.38;;;1.27;;
72813;SDS011;60945;48.516;-2.768;2022-09-27T13:56:01;5.55;;;1.30;;
72813;SDS011;60945;48.516;-2.768;2022-09-27T13:58:39;5.18;;;1.20;;
72813;SDS011;60945;48.516;-2.768;2022-09-27T14:01:17;7.75;;;2.03;;
72813;SDS011;60945;48.516;-2.768;2022-09-27T14:03:50;3.70;;;1.00;;
72813;SDS011;60945;48.516;-2.768;2022-09-27T14:06:28;4.18;;;1.23;;
72813;SDS011;60945;48.516;-2.768;2022-09-27T14:09:13;4.97;;;1.17;;
72813;SDS011;60945;48.516;-2.768;2022-09-27T14:11:49;2.78;;;0.80;;
72813;SDS011;60945;48.516;-2.768;2022-09-27T14:14:19;3.42;;;0.82;;
72813;SDS011;60945;48.516;-2.768;2022-09-27T14:16:47;2.95;;;0.80;;
72813;SDS011;60945;48.516;-2.768;2022-09-27T14:19:14;2.90;;;1.27;;
72813;SDS011;60945;48.516;-2.768;2022-09-27T14:21:42;2.22;;;0.60;;
72813;SDS011;60945;48.516;-2.768;2022-09-27T14:24:19;2.67;;;0.63;;
72813;SDS011;60945;48.516;-2.768;2022-09-27T14:27:10;2.42;;;0.80;;
72813;SDS011;60945;48.516;-2.768;2022-09-27T14:29:59;3.88;;;0.90;;
72813;SDS011;60945;48.516;-2.768;2022-09-27T14:32:44;1.10;;;0.70;;
72813;SDS011;60945;48.516;-2.768;2022-09-27T14:35:19;2.65;;;0.77;;
72813;SDS011;60945;48.516;-2.768;2022-09-27T14:38:05;3.75;;;0.90;;
72813;SDS011;60945;48.516;-2.768;2022-09-27T14:40:41;2.53;;;0.80;;
72813;SDS011;60945;48.516;-2.768;2022-09-27T14:43:10;9.73;;;1.02;;
72813;SDS011;60945;48.516;-2.768;2022-09-27T14:45:40;9.85;;;1.08;;
72813;SDS011;60945;48.516;-2.768;2022-09-27T14:53:36;1.73;;;0.90;;
72813;SDS011;60945;48.516;-2.768;2022-09-27T14:56:11;3.80;;;0.70;;
72813;SDS011;60945;48.516;-2.768;2022-09-27T14:58:51;1.98;;;0.70;;
72813;SDS011;60945;48.516;-2.768;2022-09-27T15:01:22;2.85;;;0.77;;
72813;SDS011;60945;48.516;-2.768;2022-09-27T15:03:48;1.33;;;0.40;;
72813;SDS011;60945;48.516;-2.768;2022-09-27T15:06:17;0.65;;;0.40;;
72813;SDS011;60945;48.516;-2.768;2022-09-27T15:08:44;1.42;;;0.40;;
72813;SDS011;60945;48.516;-2.768;2022-09-27T15:11:13;0.40;;;0.20;;
72813;SDS011;60945;48.516;-2.768;2022-09-27T15:13:40;0.47;;;0.30;;
72813;SDS011;60945;48.516;-2.768;2022-09-27T15:16:07;0.60;;;0.30;;
72813;SDS011;60945;48.516;-2.768;2022-09-27T15:21:06;0.90;;;0.30;;
72813;SDS011;60945;48.516;-2.768;2022-09-27T15:23:35;1.65;;;0.30;;
72813;SDS011;60945;48.516;-2.768;2022-09-27T15:28:35;0.82;;;0.30;;
72813;SDS011;60945;48.516;-2.768;2022-09-27T15:31:04;0.60;;;0.30;;
72813;SDS011;60945;48.516;-2.768;2022-09-27T15:33:32;1.35;;;0.40;;
72813;SDS011;60945;48.516;-2.768;2022-09-27T15:36:00;1.63;;;0.40;;
72813;SDS011;60945;48.516;-2.768;2022-09-27T15:38:31;2.30;;;0.52;;
72813;SDS011;60945;48.516;-2.768;2022-09-27T15:41:14;1.70;;;0.40;;
72813;SDS011;60945;48.516;-2.768;2022-09-27T15:43:50;2.05;;;0.40;;
72813;SDS011;60945;48.516;-2.768;2022-09-27T15:51:44;5.55;;;0.80;;
72813;SDS011;60945;48.516;-2.768;2022-09-27T15:54:21;2.38;;;0.63;;
72813;SDS011;60945;48.516;-2.768;2022-09-27T15:56:48;1.83;;;0.90;;
72813;SDS011;60945;48.516;-2.768;2022-09-27T15:59:22;3.83;;;1.10;;
72813;SDS011;60945;48.516;-2.768;2022-09-27T16:01:51;4.20;;;0.80;;
72813;SDS011;60945;48.516;-2.768;2022-09-27T16:04:20;3.80;;;1.00;;
72813;SDS011;60945;48.516;-2.768;2022-09-27T16:06:45;6.68;;;1.17;;
72813;SDS011;60945;48.516;-2.768;2022-09-27T16:09:15;7.10;;;1.60;;
72813;SDS011;60945;48.516;-2.768;2022-09-27T16:11:42;5.82;;;1.50;;
72813;SDS011;60945;48.516;-2.768;2022-09-27T16:14:12;5.55;;;1.55;;
72813;SDS011;60945;48.516;-2.768;2022-09-27T16:16:43;5.57;;;1.30;;
72813;SDS011;60945;48.516;-2.768;2022-09-27T16:19:10;10.00;;;1.70;;
72813;SDS011;60945;48.516;-2.768;2022-09-27T16:21:36;5.57;;;1.70;;
72813;SDS011;60945;48.516;-2.768;2022-09-27T16:24:03;4.82;;;1.90;;
72813;SDS011;60945;48.516;-2.768;2022-09-27T16:26:29;5.75;;;1.60;;
72813;SDS011;60945;48.516;-2.768;2022-09-27T16:28:54;6.32;;;1.60;;
72813;SDS011;60945;48.516;-2.768;2022-09-27T16:31:20;8.52;;;1.90;;
72813;SDS011;60945;48.516;-2.768;2022-09-27T16:33:49;7.05;;;1.38;;
72813;SDS011;60945;48.516;-2.768;2022-09-27T16:36:15;6.60;;;1.50;;
72813;SDS011;60945;48.516;-2.768;2022-09-27T16:38:47;5.45;;;1.55;;
72813;SDS011;60945;48.516;-2.768;2022-09-27T16:41:16;4.80;;;1.20;;
72813;SDS011;60945;48.516;-2.768;2022-09-27T16:43:43;6.00;;;1.52;;
72813;SDS011;60945;48.516;-2.768;2022-09-27T16:46:10;5.72;;;1.92;;
72813;SDS011;60945;48.516;-2.768;2022-09-27T16:48:38;7.15;;;1.63;;
72813;SDS011;60945;48.516;-2.768;2022-09-27T16:51:25;6.50;;;1.77;;
72813;SDS011;60945;48.516;-2.768;2022-09-27T16:54:09;7.25;;;1.50;;
72813;SDS011;60945;48.516;-2.768;2022-09-27T16:56:34;6.38;;;1.42;;
72813;SDS011;60945;48.516;-2.768;2022-09-27T16:59:01;9.25;;;1.40;;
72813;SDS011;60945;48.516;-2.768;2022-09-27T17:01:28;6.20;;;1.25;;
72813;SDS011;60945;48.516;-2.768;2022-09-27T17:03:54;5.68;;;1.33;;
72813;SDS011;60945;48.516;-2.768;2022-09-27T17:06:21;4.95;;;1.50;;
72813;SDS011;60945;48.516;-2.768;2022-09-27T17:08:47;8.38;;;1.70;;
72813;SDS011;60945;48.516;-2.768;2022-09-27T17:11:17;7.95;;;1.52;;
72813;SDS011;60945;48.516;-2.768;2022-09-27T17:13:43;6.28;;;1.35;;
72813;SDS011;60945;48.516;-2.768;2022-09-27T17:16:10;5.75;;;1.60;;
72813;SDS011;60945;48.516;-2.768;2022-09-27T17:18:37;8.85;;;1.90;;
72813;SDS011;60945;48.516;-2.768;2022-09-27T17:21:03;6.20;;;1.40;;
72813;SDS011;60945;48.516;-2.768;2022-09-27T17:23:30;6.95;;;1.10;;
72813;SDS011;60945;48.516;-2.768;2022-09-27T17:26:00;6.35;;;1.20;;
72813;SDS011;60945;48.516;-2.768;2022-09-27T17:28:28;5.28;;;1.38;;
72813;SDS011;60945;48.516;-2.768;2022-09-27T17:31:00;10.65;;;1.95;;
72813;SDS011;60945;48.516;-2.768;2022-09-27T17:33:41;4.95;;;1.27;;
72813;SDS011;60945;48.516;-2.768;2022-09-27T17:36:19;3.90;;;1.02;;
72813;SDS011;60945;48.516;-2.768;2022-09-27T17:38:47;5.05;;;1.10;;
72813;SDS011;60945;48.516;-2.768;2022-09-27T17:41:15;4.03;;;1.00;;
72813;SDS011;60945;48.516;-2.768;2022-09-27T17:43:50;5.90;;;1.42;;
72813;SDS011;60945;48.516;-2.768;2022-09-27T17:46:19;5.90;;;1.10;;